< Typhoon 199604 1996 Season Typhoon 199606 >
Typhoon 199605 (DAN)
General InformationTrack Information on Google MapsDetailed Wind InformationList of All Images || Disaster Info.ResourceGoogle EarthGE AnimationAtom FeedGeoJSON
Detalied Best Track (Time Zone = UTC)
Year Month Day Hour Lat. Long. Pressure (hPa) Wind (kt) Class Image Chart
1996 7 5 00 19.9 148.6 1002 0 2 Image Chart
1996 7 5 06 19.9 148.1 1000 0 2 Image Chart
1996 7 5 12 19.9 147.6 1000 0 2 Image Chart
1996 7 5 18 20.0 147.2 1000 0 2 Image Chart
1996 7 6 00 20.2 146.8 998 0 2 Image Chart
1996 7 6 06 20.7 146.4 998 0 2 Image Chart
1996 7 6 12 21.0 145.7 996 35 3 Image Chart
1996 7 6 18 21.0 144.8 992 40 3 Image Chart
1996 7 7 00 21.2 143.8 990 45 3 Image Chart
1996 7 7 06 21.6 143.1 985 50 4 Image Chart
1996 7 7 12 22.0 142.5 980 55 4 Image Chart
1996 7 7 18 22.5 142.0 975 60 4 Image Chart
1996 7 8 00 22.9 141.4 970 65 5 Image Chart
1996 7 8 06 23.3 140.8 970 65 5 Image Chart
1996 7 8 12 24.0 140.5 970 65 5 Image Chart
1996 7 8 15 24.4 140.4 970 65 5 Image Chart
1996 7 8 18 24.8 140.4 970 65 5 Image Chart
1996 7 8 21 25.1 140.4 970 65 5 Image Chart
1996 7 9 00 25.5 140.5 970 65 5 Image Chart
1996 7 9 03 25.9 140.6 970 65 5 Image Chart
1996 7 9 06 26.3 140.8 975 60 4 Image Chart
1996 7 9 09 26.9 141.0 975 60 4 Image Chart
1996 7 9 12 27.7 141.0 975 60 4 Image Chart
1996 7 9 15 28.5 141.1 975 60 4 Image Chart
1996 7 9 18 29.4 141.2 975 55 4 Image Chart
1996 7 9 21 30.3 141.2 975 55 4 Image Chart
1996 7 10 00 31.0 141.1 980 55 4 Image Chart
1996 7 10 03 31.7 141.0 980 55 4 Image Chart
1996 7 10 06 32.4 140.9 980 55 4 Image Chart
1996 7 10 09 33.3 141.1 980 55 4 Image Chart
1996 7 10 12 33.9 141.4 985 50 4 Image Chart
1996 7 10 15 34.4 141.9 985 50 4 Image Chart
1996 7 10 18 35.1 142.5 985 50 4 Image Chart
1996 7 10 21 35.9 143.3 985 45 3 Image Chart
1996 7 11 00 36.7 143.7 985 45 3 Image Chart
1996 7 11 03 37.1 144.6 985 45 3 Image Chart
1996 7 11 06 37.7 145.5 985 45 3 Image Chart
1996 7 11 12 39.6 147.3 985 45 3 Image Chart
1996 7 11 18 42.2 149.7 985 45 3 Image Chart
1996 7 12 00 44.9 151.1 985 40 3 Image Chart
1996 7 12 06 46.0 151.5 988 0 6 Image Chart
1996 7 12 12 47.0 152.0 988 0 6 Image Chart
1996 7 12 18 47.0 153.0 988 0 6 Image Chart
1996 7 13 00 46.0 154.0 992 0 6 Image Chart
1996 7 13 06 45.5 156.5 992 0 6 Image Chart
1996 7 13 12 45.5 159.5 992 0 6 Image Chart
1996 7 13 18 46.0 162.5 988 0 6 Image Chart
1996 7 14 00 47.0 165.0 986 0 6 Image Chart
1996 7 14 06 46.5 167.5 990 0 6 Image Chart
1996 7 14 12 47.0 170.0 990 0 6 Image Chart
1996 7 14 18 48.0 171.0 988 0 6 Image Chart
1996 7 15 00 49.0 171.5 988 0 6 Image Chart
1996 7 15 06 49.5 171.5 992 0 6 Image Chart
1996 7 15 12 50.0 172.0 992 0 6 Image Chart
1996 7 15 18 50.5 172.5 994 0 6 Image Chart
1996 7 16 00 51.0 173.0 996 0 6 Image Chart
1996 7 16 06 52.0 173.5 998 0 6 Image Chart
1996 7 16 12 53.5 174.5 1002 0 6 Image Chart
1996 7 16 18 55.0 175.5 1002 0 6 Image Chart
1996 7 17 00 56.0 176.5 1004 0 6 Image Chart
1996 7 17 06 57.0 178.0 1006 0 6 Image Chart
1996 7 17 12 58.0 179.5 1006 0 6 Image Chart
1996 7 17 18 59.5 181.5 1008 0 6 Image Chart
Japan Meteorological Agency Best Track Data | Correction Date : 1997-01-07
< Typhoon 199604 1996 Season Typhoon 199606 >

Help